Archival Weather

Sydney Intl

Sydney, Australia (YSSY)

Report from: Sunday, March 19, 2023 12:30 AM AEDT
Current time: Tuesday, February 27, 2024 8:02 PM AEDT

Current weather – Weather history – Daily summaries
Weather forecast

Temperature23.0°C (73.4°F)
Dew point21.0°C (69.8°F)
Winds 2 kts (1 m/s, 2.3 mph) North-Northeast (30°)
Clouds Sky clear
Altimeter30.06 in.Hg (1018 mB)
Relative humidity89 %
Density altitude1,106 ft. (337 m)
Remarks Ceiling and visibility OK
Flight conditions Visual Meteorological Conditions
Raw dataYSSY 181330Z 03002KT CAVOK 23/21 Q1018
An error has occurred. This application may no longer respond until reloaded. Reload 🗙